Detall de PIREP

Printer-friendly versionPDF version

[2009/02/01 09:41:00]
Flight IATA:CT3117
Pilot Number:011
Company ICAO:CAT
Aircraft Type:F50/A
PAX:50
Departing Airport: LEZG
Destination Airport: LEBL
Alternate Airport:LEPA
Online: VATSIM
Route:PONEN W800 CASPE
Flight Level:FL200
No Slew and time accel
No pause
Crash detect
Detect pilot in Cockpit between each 30 and 45 minutes
09:41 Zero fuel Weight: 43534 Lbs, Fuel Weight: 2180 Lbs
09:41 VATSIM:LEZG 010930Z 11005KT 9999 SCT048 BKN085 07/03 Q0997
09:41 VATSIM:LEBL 010930Z 01003KT 300V060 9999 FEW009 BKN022 11/09 Q0999 NOSIG
09:45 Parking Brakes off
09:53 Take-off
09:53 Take off Weight: 45640 Lbs
09:53 Wind: 113 @ 005 Knots Heading: 300
09:53 POS N41 39 40 W001 01 19
09:53 Flaps:3 at 135 Knots
09:53 Gear Up: 138 Knots
09:54 Flaps:2 at 158 Knots
09:54 Flaps:1 at 165 Knots
09:54 Flaps:0 at 169 Knots
10:08 Wind:105@016 Knots Heading: 094 Ground Speed
: 241 Knots Altitude 19265 ft
10:08 TOC
10:08 Fuel Weight: 1616 Lb
10:08 TOD
10:08 Fuel Weight: 1596 Lb
10:09 TOC
10:09 Fuel Weight: 1567 Lb
10:10 TOD
10:10 Fuel Weight: 1559 Lb
10:11 TOC
10:11 Fuel Weight: 1515 Lb
10:15 TOD
10:15 Fuel Weight: 1424 Lb
10:16 TOC
10:16 Fuel Weight: 1398 Lb
10:16 TOD
10:16 Fuel Weight: 1386 Lb
10:17 TOC
10:17 Fuel Weight: 1376 Lb
10:18 TOD
10:18 Fuel Weight: 1332 Lb
10:23 Wind:032@014 Knots Heading: 111 Ground Speed: 242 Knots Altitude 14501 ft
10:38 Wind:050@005 Knots Heading: 026 Ground Speed: 169 Knots Altitude 3001 ft
10:40 Flaps:1 at 165 Knots
10:41 Flaps:2 at 155 Knots
10:42 Flaps:3 at 154 Knots
10:43 Flaps:4 at 155 Knots
10:43 Gear Down: 151 Knots
10:44 Flaps:5 at 125 Knots
10:44 Flaps:6 at 119 Knots
10:47 TouchDown:Rate -269 ft/min Speed: 88 Knots
10:47 VATSIM:LEBL 011030Z 10004KT 060V130 6000 RA SCT008
BKN018 11/10 Q0998 NOSIG
10:47 Land
10:47 Wind:075@004 Knots
10:47 Heading: 067
10:47 Flight Duration: 00:54
10:47 Landing Weight: 44586 Lbs
10:47 POS N41 17 13 E002 05 17
10:56 Parking brakes on
10:56 Block to Block Duration: 01:11
10:56 Final Fuel: 994 Lbls
10:56 Spent Fuel: 1186 Lbls
10:56 Flight Length: 135 NM
10:56 TOD Land Length: 37 NM

Exportar CSV

Powered by Drupal - Modified by Danger4k